ATH weather

Eleftherios Venizelos International Airport
Athens, Attica, Greece

Public forecast

Using degrees Celsius for public forecast. Weather courtesy of forecast.io.

METAR (pilot weather report)

Retrieved 2017/05/25 00:50 UTC (10 minutes ago):

LGAV 250050Z VRB01KT CAVOK 15/13 Q1014 NOSIG

TAF (pilot weather forecast)

Forecast is more than 12 hours old.

Retrieved 2017/05/24 00:12 UTC (1 day ago):

TAF TAF LGAV 242300Z 2500/2524 27006KT 9999 FEW030 BECMG 2507/2509 10010KT BECMG 2510/2512 16010KT PROB30 TEMPO 2509/2512 5000 SHRA FEW018CB SCT020 BKN070